Toronto, South Dakota
Current Conditions -  °F | °C
As of 8:53 AM on Friday 28 Nov 2014 (Local Time) from KCNB Reporting Station
Overcast Overcast  
Wind Chill:   Ceiling: 9000
Heat Index: 13°   Visibility: 10mi
Dew Point: 10°   Wind: 6mph
Humidity: 87%   Direction: 140°SE
Pressure: 29.87"   Gusts: NA
Location:  44.57°N, 96.64°W
Report Text: KCNB 281453Z AUTO 14005KT 10SM BKN090 OVC110 M10/M12 A2987 RMK AO2 T11051123
Loading
Personal Weather Stations






























Interactive Weather Map New forecast layout! Learn more

10-Day Weather Forecast

Advertisements
Track Severe Weather on mobile